sensor_id;sensor_type;location;lat;lon;timestamp;P1;durP1;ratioP1;P2;durP2;ratioP2
39502;SDS011;26970;49.900;10.774;2023-03-05T00:01:04;19.77;;;7.35;;
39502;SDS011;26970;49.900;10.774;2023-03-05T00:03:31;19.20;;;7.70;;
39502;SDS011;26970;49.900;10.774;2023-03-05T00:05:57;15.48;;;7.32;;
39502;SDS011;26970;49.900;10.774;2023-03-05T00:08:22;16.35;;;5.63;;
39502;SDS011;26970;49.900;10.774;2023-03-05T00:10:55;12.82;;;5.30;;
39502;SDS011;26970;49.900;10.774;2023-03-05T00:13:25;10.07;;;5.72;;
39502;SDS011;26970;49.900;10.774;2023-03-05T00:15:50;16.00;;;5.05;;
39502;SDS011;26970;49.900;10.774;2023-03-05T00:18:16;13.85;;;4.63;;
39502;SDS011;26970;49.900;10.774;2023-03-05T00:20:43;9.23;;;4.22;;
39502;SDS011;26970;49.900;10.774;2023-03-05T00:23:09;10.10;;;3.97;;
39502;SDS011;26970;49.900;10.774;2023-03-05T00:25:35;7.43;;;3.47;;
39502;SDS011;26970;49.900;10.774;2023-03-05T00:28:03;9.57;;;3.75;;
39502;SDS011;26970;49.900;10.774;2023-03-05T00:30:29;10.02;;;3.40;;
39502;SDS011;26970;49.900;10.774;2023-03-05T00:32:55;10.82;;;3.63;;
39502;SDS011;26970;49.900;10.774;2023-03-05T00:35:21;6.03;;;2.58;;
39502;SDS011;26970;49.900;10.774;2023-03-05T00:37:47;5.90;;;2.92;;
39502;SDS011;26970;49.900;10.774;2023-03-05T00:40:12;10.25;;;2.70;;
39502;SDS011;26970;49.900;10.774;2023-03-05T00:42:38;8.07;;;2.88;;
39502;SDS011;26970;49.900;10.774;2023-03-05T00:45:04;4.43;;;2.15;;
39502;SDS011;26970;49.900;10.774;2023-03-05T00:47:31;5.75;;;2.40;;
39502;SDS011;26970;49.900;10.774;2023-03-05T00:49:57;6.13;;;3.45;;
39502;SDS011;26970;49.900;10.774;2023-03-05T00:52:22;6.07;;;3.05;;
39502;SDS011;26970;49.900;10.774;2023-03-05T00:54:48;8.82;;;3.30;;
39502;SDS011;26970;49.900;10.774;2023-03-05T00:57:14;9.73;;;2.90;;
39502;SDS011;26970;49.900;10.774;2023-03-05T00:59:39;9.55;;;3.58;;
39502;SDS011;26970;49.900;10.774;2023-03-05T01:02:05;10.57;;;3.95;;
39502;SDS011;26970;49.900;10.774;2023-03-05T01:04:31;10.80;;;3.88;;
39502;SDS011;26970;49.900;10.774;2023-03-05T01:06:56;10.05;;;4.57;;
39502;SDS011;26970;49.900;10.774;2023-03-05T01:09:22;17.00;;;5.20;;
39502;SDS011;26970;49.900;10.774;2023-03-05T01:11:49;6.18;;;2.88;;
39502;SDS011;26970;49.900;10.774;2023-03-05T01:14:16;7.85;;;3.45;;
39502;SDS011;26970;49.900;10.774;2023-03-05T01:16:42;7.50;;;3.75;;
39502;SDS011;26970;49.900;10.774;2023-03-05T01:19:07;7.50;;;2.97;;
39502;SDS011;26970;49.900;10.774;2023-03-05T01:21:33;8.50;;;3.08;;
39502;SDS011;26970;49.900;10.774;2023-03-05T01:24:00;6.97;;;3.63;;
39502;SDS011;26970;49.900;10.774;2023-03-05T01:26:26;6.32;;;2.90;;
39502;SDS011;26970;49.900;10.774;2023-03-05T01:28:52;7.75;;;2.88;;
39502;SDS011;26970;49.900;10.774;2023-03-05T01:31:18;6.32;;;2.65;;
39502;SDS011;26970;49.900;10.774;2023-03-05T01:33:44;5.40;;;2.70;;
39502;SDS011;26970;49.900;10.774;2023-03-05T01:36:10;7.68;;;2.47;;
39502;SDS011;26970;49.900;10.774;2023-03-05T01:38:40;8.63;;;2.33;;
39502;SDS011;26970;49.900;10.774;2023-03-05T01:41:06;9.10;;;2.38;;
39502;SDS011;26970;49.900;10.774;2023-03-05T01:43:32;7.75;;;2.50;;
39502;SDS011;26970;49.900;10.774;2023-03-05T01:48:41;6.75;;;2.20;;
39502;SDS011;26970;49.900;10.774;2023-03-05T01:51:09;5.53;;;2.35;;
39502;SDS011;26970;49.900;10.774;2023-03-05T01:53:35;5.75;;;2.58;;
39502;SDS011;26970;49.900;10.774;2023-03-05T01:56:00;3.72;;;1.92;;
39502;SDS011;26970;49.900;10.774;2023-03-05T01:58:27;8.38;;;2.50;;
39502;SDS011;26970;49.900;10.774;2023-03-05T02:00:53;3.10;;;1.92;;
39502;SDS011;26970;49.900;10.774;2023-03-05T02:03:20;4.82;;;2.17;;
39502;SDS011;26970;49.900;10.774;2023-03-05T02:05:47;7.57;;;2.25;;
39502;SDS011;26970;49.900;10.774;2023-03-05T02:08:14;4.85;;;1.90;;
39502;SDS011;26970;49.900;10.774;2023-03-05T02:10:43;8.88;;;2.95;;
39502;SDS011;26970;49.900;10.774;2023-03-05T02:13:15;2.72;;;1.70;;
39502;SDS011;26970;49.900;10.774;2023-03-05T02:15:46;5.20;;;2.00;;
39502;SDS011;26970;49.900;10.774;2023-03-05T02:18:14;5.50;;;1.98;;
39502;SDS011;26970;49.900;10.774;2023-03-05T02:20:42;4.20;;;1.73;;
39502;SDS011;26970;49.900;10.774;2023-03-05T02:23:08;5.35;;;2.08;;
39502;SDS011;26970;49.900;10.774;2023-03-05T02:25:34;6.70;;;1.80;;
39502;SDS011;26970;49.900;10.774;2023-03-05T02:28:14;6.85;;;2.30;;
39502;SDS011;26970;49.900;10.774;2023-03-05T02:31:01;5.78;;;2.30;;
39502;SDS011;26970;49.900;10.774;2023-03-05T02:33:50;4.28;;;1.80;;
39502;SDS011;26970;49.900;10.774;2023-03-05T02:36:18;4.22;;;2.10;;
39502;SDS011;26970;49.900;10.774;2023-03-05T02:38:44;4.35;;;1.60;;
39502;SDS011;26970;49.900;10.774;2023-03-05T02:41:10;4.90;;;1.80;;
39502;SDS011;26970;49.900;10.774;2023-03-05T02:43:36;5.63;;;2.10;;
39502;SDS011;26970;49.900;10.774;2023-03-05T02:46:03;5.90;;;2.20;;
39502;SDS011;26970;49.900;10.774;2023-03-05T02:48:28;5.13;;;2.15;;
39502;SDS011;26970;49.900;10.774;2023-03-05T02:50:54;5.93;;;1.90;;
39502;SDS011;26970;49.900;10.774;2023-03-05T02:53:21;5.90;;;2.00;;
39502;SDS011;26970;49.900;10.774;2023-03-05T02:55:47;8.27;;;1.92;;
39502;SDS011;26970;49.900;10.774;2023-03-05T02:58:14;6.85;;;2.10;;
39502;SDS011;26970;49.900;10.774;2023-03-05T03:00:40;6.43;;;1.90;;
39502;SDS011;26970;49.900;10.774;2023-03-05T03:03:06;4.82;;;1.70;;
39502;SDS011;26970;49.900;10.774;2023-03-05T03:05:32;5.70;;;1.80;;
39502;SDS011;26970;49.900;10.774;2023-03-05T03:07:58;6.32;;;1.88;;
39502;SDS011;26970;49.900;10.774;2023-03-05T03:10:24;4.72;;;1.75;;
39502;SDS011;26970;49.900;10.774;2023-03-05T03:12:49;2.80;;;1.67;;
39502;SDS011;26970;49.900;10.774;2023-03-05T03:15:15;4.40;;;1.70;;
39502;SDS011;26970;49.900;10.774;2023-03-05T03:17:42;6.57;;;1.90;;
39502;SDS011;26970;49.900;10.774;2023-03-05T03:20:08;6.03;;;2.03;;
39502;SDS011;26970;49.900;10.774;2023-03-05T03:22:38;4.35;;;2.10;;
39502;SDS011;26970;49.900;10.774;2023-03-05T03:25:04;5.15;;;2.00;;
39502;SDS011;26970;49.900;10.774;2023-03-05T03:27:30;9.27;;;1.88;;
39502;SDS011;26970;49.900;10.774;2023-03-05T03:29:55;3.45;;;1.58;;
39502;SDS011;26970;49.900;10.774;2023-03-05T03:32:26;4.18;;;1.83;;
39502;SDS011;26970;49.900;10.774;2023-03-05T03:34:53;4.70;;;1.73;;
39502;SDS011;26970;49.900;10.774;2023-03-05T03:37:18;6.03;;;2.10;;
39502;SDS011;26970;49.900;10.774;2023-03-05T03:39:44;5.55;;;1.95;;
39502;SDS011;26970;49.900;10.774;2023-03-05T03:42:10;3.25;;;1.92;;
39502;SDS011;26970;49.900;10.774;2023-03-05T03:44:35;2.70;;;1.70;;
39502;SDS011;26970;49.900;10.774;2023-03-05T03:47:01;5.57;;;2.13;;
39502;SDS011;26970;49.900;10.774;2023-03-05T03:49:26;5.70;;;1.90;;
39502;SDS011;26970;49.900;10.774;2023-03-05T03:51:52;3.90;;;2.00;;
39502;SDS011;26970;49.900;10.774;2023-03-05T03:54:19;3.30;;;1.70;;
39502;SDS011;26970;49.900;10.774;2023-03-05T03:56:45;7.07;;;2.55;;
39502;SDS011;26970;49.900;10.774;2023-03-05T03:59:11;6.57;;;2.30;;
39502;SDS011;26970;49.900;10.774;2023-03-05T04:01:38;7.28;;;2.30;;
39502;SDS011;26970;49.900;10.774;2023-03-05T04:04:04;7.90;;;2.42;;
39502;SDS011;26970;49.900;10.774;2023-03-05T04:06:30;7.55;;;1.98;;
39502;SDS011;26970;49.900;10.774;2023-03-05T04:08:56;5.93;;;2.03;;
39502;SDS011;26970;49.900;10.774;2023-03-05T04:11:21;6.13;;;2.13;;
39502;SDS011;26970;49.900;10.774;2023-03-05T04:13:47;8.73;;;2.30;;
39502;SDS011;26970;49.900;10.774;2023-03-05T04:16:13;6.50;;;1.98;;
39502;SDS011;26970;49.900;10.774;2023-03-05T04:18:40;4.45;;;2.17;;
39502;SDS011;26970;49.900;10.774;2023-03-05T04:21:06;4.72;;;2.50;;
39502;SDS011;26970;49.900;10.774;2023-03-05T04:23:32;10.48;;;2.53;;
39502;SDS011;26970;49.900;10.774;2023-03-05T04:25:57;10.68;;;2.60;;
39502;SDS011;26970;49.900;10.774;2023-03-05T04:28:23;7.18;;;2.90;;
39502;SDS011;26970;49.900;10.774;2023-03-05T04:30:48;7.03;;;2.70;;
39502;SDS011;26970;49.900;10.774;2023-03-05T04:33:14;6.90;;;3.25;;
39502;SDS011;26970;49.900;10.774;2023-03-05T04:35:40;8.30;;;2.70;;
39502;SDS011;26970;49.900;10.774;2023-03-05T04:38:05;7.15;;;2.90;;
39502;SDS011;26970;49.900;10.774;2023-03-05T04:40:31;9.95;;;3.88;;
39502;SDS011;26970;49.900;10.774;2023-03-05T04:42:57;10.10;;;3.67;;
39502;SDS011;26970;49.900;10.774;2023-03-05T04:45:23;8.55;;;3.70;;
39502;SDS011;26970;49.900;10.774;2023-03-05T04:47:48;7.88;;;4.22;;
39502;SDS011;26970;49.900;10.774;2023-03-05T04:50:14;11.35;;;3.50;;
39502;SDS011;26970;49.900;10.774;2023-03-05T04:52:41;10.95;;;4.20;;
39502;SDS011;26970;49.900;10.774;2023-03-05T04:55:07;10.55;;;4.07;;
39502;SDS011;26970;49.900;10.774;2023-03-05T04:57:34;10.23;;;3.95;;
39502;SDS011;26970;49.900;10.774;2023-03-05T05:00:00;6.03;;;3.42;;
39502;SDS011;26970;49.900;10.774;2023-03-05T05:02:25;10.48;;;4.22;;
39502;SDS011;26970;49.900;10.774;2023-03-05T05:04:51;9.10;;;3.42;;
39502;SDS011;26970;49.900;10.774;2023-03-05T05:07:17;10.45;;;3.95;;
39502;SDS011;26970;49.900;10.774;2023-03-05T05:09:43;8.20;;;3.72;;
39502;SDS011;26970;49.900;10.774;2023-03-05T05:12:09;8.52;;;3.95;;
39502;SDS011;26970;49.900;10.774;2023-03-05T05:14:34;9.75;;;4.07;;
39502;SDS011;26970;49.900;10.774;2023-03-05T05:17:00;10.30;;;4.43;;
39502;SDS011;26970;49.900;10.774;2023-03-05T05:19:29;11.05;;;4.43;;
39502;SDS011;26970;49.900;10.774;2023-03-05T05:21:55;9.15;;;4.35;;
39502;SDS011;26970;49.900;10.774;2023-03-05T05:24:21;14.15;;;4.40;;
39502;SDS011;26970;49.900;10.774;2023-03-05T05:26:47;9.68;;;4.30;;
39502;SDS011;26970;49.900;10.774;2023-03-05T05:29:13;14.55;;;4.35;;
39502;SDS011;26970;49.900;10.774;2023-03-05T05:31:39;13.68;;;4.43;;
39502;SDS011;26970;49.900;10.774;2023-03-05T05:34:04;8.52;;;3.45;;
39502;SDS011;26970;49.900;10.774;2023-03-05T05:36:30;8.55;;;4.40;;
39502;SDS011;26970;49.900;10.774;2023-03-05T05:38:55;9.40;;;3.63;;
39502;SDS011;26970;49.900;10.774;2023-03-05T05:41:21;9.98;;;3.55;;
39502;SDS011;26970;49.900;10.774;2023-03-05T05:43:46;10.55;;;3.83;;
39502;SDS011;26970;49.900;10.774;2023-03-05T05:46:13;11.32;;;3.85;;
39502;SDS011;26970;49.900;10.774;2023-03-05T05:48:41;9.48;;;3.20;;
39502;SDS011;26970;49.900;10.774;2023-03-05T05:51:08;7.97;;;3.20;;
39502;SDS011;26970;49.900;10.774;2023-03-05T05:53:39;8.87;;;3.37;;
39502;SDS011;26970;49.900;10.774;2023-03-05T05:56:06;8.15;;;3.88;;
39502;SDS011;26970;49.900;10.774;2023-03-05T05:58:33;8.27;;;3.50;;
39502;SDS011;26970;49.900;10.774;2023-03-05T06:01:00;7.22;;;3.05;;
39502;SDS011;26970;49.900;10.774;2023-03-05T06:03:26;10.38;;;2.92;;
39502;SDS011;26970;49.900;10.774;2023-03-05T06:05:52;11.10;;;3.22;;
39502;SDS011;26970;49.900;10.774;2023-03-05T06:08:18;9.80;;;3.40;;
39502;SDS011;26970;49.900;10.774;2023-03-05T06:10:44;7.28;;;2.95;;
39502;SDS011;26970;49.900;10.774;2023-03-05T06:13:09;7.93;;;2.80;;
39502;SDS011;26970;49.900;10.774;2023-03-05T06:15:35;8.43;;;3.08;;
39502;SDS011;26970;49.900;10.774;2023-03-05T06:18:01;6.93;;;2.58;;
39502;SDS011;26970;49.900;10.774;2023-03-05T06:20:26;9.38;;;2.70;;
39502;SDS011;26970;49.900;10.774;2023-03-05T06:22:52;7.68;;;2.90;;
39502;SDS011;26970;49.900;10.774;2023-03-05T06:25:18;7.53;;;2.42;;
39502;SDS011;26970;49.900;10.774;2023-03-05T06:27:44;7.63;;;2.85;;
39502;SDS011;26970;49.900;10.774;2023-03-05T06:30:10;8.20;;;2.92;;
39502;SDS011;26970;49.900;10.774;2023-03-05T06:32:36;5.65;;;3.00;;
39502;SDS011;26970;49.900;10.774;2023-03-05T06:35:01;8.23;;;2.95;;
39502;SDS011;26970;49.900;10.774;2023-03-05T06:37:27;6.82;;;3.00;;
39502;SDS011;26970;49.900;10.774;2023-03-05T06:39:53;8.55;;;2.92;;
39502;SDS011;26970;49.900;10.774;2023-03-05T06:42:18;7.47;;;2.78;;
39502;SDS011;26970;49.900;10.774;2023-03-05T06:44:44;9.75;;;2.70;;
39502;SDS011;26970;49.900;10.774;2023-03-05T06:47:10;7.20;;;2.60;;
39502;SDS011;26970;49.900;10.774;2023-03-05T06:49:37;7.07;;;2.85;;
39502;SDS011;26970;49.900;10.774;2023-03-05T06:52:03;11.55;;;2.70;;
39502;SDS011;26970;49.900;10.774;2023-03-05T06:54:30;8.30;;;3.35;;
39502;SDS011;26970;49.900;10.774;2023-03-05T06:56:56;8.25;;;2.67;;
39502;SDS011;26970;49.900;10.774;2023-03-05T06:59:22;7.30;;;2.80;;
39502;SDS011;26970;49.900;10.774;2023-03-05T07:01:48;5.68;;;3.03;;
39502;SDS011;26970;49.900;10.774;2023-03-05T07:04:14;5.13;;;3.08;;
39502;SDS011;26970;49.900;10.774;2023-03-05T07:06:40;6.00;;;2.45;;
39502;SDS011;26970;49.900;10.774;2023-03-05T07:09:07;7.13;;;2.78;;
39502;SDS011;26970;49.900;10.774;2023-03-05T07:11:35;7.63;;;2.20;;
39502;SDS011;26970;49.900;10.774;2023-03-05T07:14:00;4.75;;;2.33;;
39502;SDS011;26970;49.900;10.774;2023-03-05T07:16:28;8.45;;;2.90;;
39502;SDS011;26970;49.900;10.774;2023-03-05T07:18:55;12.43;;;2.45;;
39502;SDS011;26970;49.900;10.774;2023-03-05T07:21:23;6.90;;;2.45;;
39502;SDS011;26970;49.900;10.774;2023-03-05T07:23:54;8.00;;;2.95;;
39502;SDS011;26970;49.900;10.774;2023-03-05T07:26:21;8.18;;;2.65;;
39502;SDS011;26970;49.900;10.774;2023-03-05T07:28:47;8.88;;;3.05;;
39502;SDS011;26970;49.900;10.774;2023-03-05T07:31:16;6.38;;;2.20;;
39502;SDS011;26970;49.900;10.774;2023-03-05T07:33:47;6.80;;;2.60;;
39502;SDS011;26970;49.900;10.774;2023-03-05T07:36:14;7.32;;;2.83;;
39502;SDS011;26970;49.900;10.774;2023-03-05T07:38:40;8.88;;;2.72;;
39502;SDS011;26970;49.900;10.774;2023-03-05T07:41:07;4.55;;;2.30;;
39502;SDS011;26970;49.900;10.774;2023-03-05T07:43:34;6.13;;;2.85;;
39502;SDS011;26970;49.900;10.774;2023-03-05T07:46:04;9.18;;;3.30;;
39502;SDS011;26970;49.900;10.774;2023-03-05T07:48:31;10.57;;;3.30;;
39502;SDS011;26970;49.900;10.774;2023-03-05T07:51:01;8.57;;;3.58;;
39502;SDS011;26970;49.900;10.774;2023-03-05T07:53:28;13.27;;;4.05;;
39502;SDS011;26970;49.900;10.774;2023-03-05T07:55:53;12.38;;;4.55;;
39502;SDS011;26970;49.900;10.774;2023-03-05T07:58:19;10.55;;;4.25;;
39502;SDS011;26970;49.900;10.774;2023-03-05T08:00:44;9.07;;;4.05;;
39502;SDS011;26970;49.900;10.774;2023-03-05T08:03:10;9.38;;;4.32;;
39502;SDS011;26970;49.900;10.774;2023-03-05T08:05:40;8.02;;;3.65;;
39502;SDS011;26970;49.900;10.774;2023-03-05T08:08:06;10.63;;;3.70;;
39502;SDS011;26970;49.900;10.774;2023-03-05T08:10:33;7.00;;;3.30;;
39502;SDS011;26970;49.900;10.774;2023-03-05T08:12:59;8.02;;;3.55;;
39502;SDS011;26970;49.900;10.774;2023-03-05T08:15:25;7.97;;;4.22;;
39502;SDS011;26970;49.900;10.774;2023-03-05T08:17:51;6.38;;;3.33;;
39502;SDS011;26970;49.900;10.774;2023-03-05T08:20:16;8.90;;;3.28;;
39502;SDS011;26970;49.900;10.774;2023-03-05T08:22:43;10.20;;;3.85;;
39502;SDS011;26970;49.900;10.774;2023-03-05T08:25:09;6.93;;;3.00;;
39502;SDS011;26970;49.900;10.774;2023-03-05T08:27:44;10.60;;;3.13;;
39502;SDS011;26970;49.900;10.774;2023-03-05T08:30:12;5.30;;;3.40;;
39502;SDS011;26970;49.900;10.774;2023-03-05T08:32:40;6.45;;;4.15;;
39502;SDS011;26970;49.900;10.774;2023-03-05T08:35:06;13.73;;;3.78;;
39502;SDS011;26970;49.900;10.774;2023-03-05T08:37:33;11.77;;;3.20;;
39502;SDS011;26970;49.900;10.774;2023-03-05T08:39:59;6.63;;;2.60;;
39502;SDS011;26970;49.900;10.774;2023-03-05T08:42:24;7.03;;;3.97;;
39502;SDS011;26970;49.900;10.774;2023-03-05T08:44:50;5.97;;;2.80;;
39502;SDS011;26970;49.900;10.774;2023-03-05T08:47:16;7.78;;;4.50;;
39502;SDS011;26970;49.900;10.774;2023-03-05T08:49:43;14.60;;;8.23;;
39502;SDS011;26970;49.900;10.774;2023-03-05T08:52:08;13.82;;;8.70;;
39502;SDS011;26970;49.900;10.774;2023-03-05T08:54:35;11.70;;;4.85;;
39502;SDS011;26970;49.900;10.774;2023-03-05T08:57:01;22.58;;;12.40;;
39502;SDS011;26970;49.900;10.774;2023-03-05T08:59:27;12.70;;;8.98;;
39502;SDS011;26970;49.900;10.774;2023-03-05T09:01:53;8.13;;;3.60;;
39502;SDS011;26970;49.900;10.774;2023-03-05T09:04:19;9.10;;;3.53;;
39502;SDS011;26970;49.900;10.774;2023-03-05T09:06:44;9.02;;;3.92;;
39502;SDS011;26970;49.900;10.774;2023-03-05T09:09:10;6.03;;;2.85;;
39502;SDS011;26970;49.900;10.774;2023-03-05T09:11:37;5.93;;;2.58;;
39502;SDS011;26970;49.900;10.774;2023-03-05T09:14:04;7.90;;;2.30;;
39502;SDS011;26970;49.900;10.774;2023-03-05T09:16:30;5.95;;;2.67;;
39502;SDS011;26970;49.900;10.774;2023-03-05T09:18:57;5.57;;;2.60;;
39502;SDS011;26970;49.900;10.774;2023-03-05T09:21:23;17.40;;;15.48;;
39502;SDS011;26970;49.900;10.774;2023-03-05T09:23:49;6.72;;;4.47;;
39502;SDS011;26970;49.900;10.774;2023-03-05T09:26:15;5.43;;;3.88;;
39502;SDS011;26970;49.900;10.774;2023-03-05T09:28:48;5.18;;;3.58;;
39502;SDS011;26970;49.900;10.774;2023-03-05T09:31:14;6.53;;;2.55;;
39502;SDS011;26970;49.900;10.774;2023-03-05T09:33:40;6.90;;;2.83;;
39502;SDS011;26970;49.900;10.774;2023-03-05T09:36:16;6.53;;;2.50;;
39502;SDS011;26970;49.900;10.774;2023-03-05T09:38:46;5.22;;;2.30;;
39502;SDS011;26970;49.900;10.774;2023-03-05T09:41:14;7.72;;;3.65;;
39502;SDS011;26970;49.900;10.774;2023-03-05T09:44:09;5.95;;;2.05;;
39502;SDS011;26970;49.900;10.774;2023-03-05T09:46:52;5.95;;;2.03;;
39502;SDS011;26970;49.900;10.774;2023-03-05T09:52:22;3.70;;;1.98;;
39502;SDS011;26970;49.900;10.774;2023-03-05T09:54:55;5.68;;;2.78;;
39502;SDS011;26970;49.900;10.774;2023-03-05T09:57:37;3.50;;;1.85;;
39502;SDS011;26970;49.900;10.774;2023-03-05T10:00:10;3.83;;;1.70;;
39502;SDS011;26970;49.900;10.774;2023-03-05T10:02:57;3.53;;;1.98;;
39502;SDS011;26970;49.900;10.774;2023-03-05T10:05:28;6.95;;;1.90;;
39502;SDS011;26970;49.900;10.774;2023-03-05T10:08:07;4.63;;;2.03;;
39502;SDS011;26970;49.900;10.774;2023-03-05T10:13:04;5.85;;;2.10;;
39502;SDS011;26970;49.900;10.774;2023-03-05T10:21:20;2.20;;;1.40;;
39502;SDS011;26970;49.900;10.774;2023-03-05T10:26:39;3.15;;;1.75;;
39502;SDS011;26970;49.900;10.774;2023-03-05T10:29:17;2.83;;;1.42;;
39502;SDS011;26970;49.900;10.774;2023-03-05T10:32:32;3.08;;;1.75;;
39502;SDS011;26970;49.900;10.774;2023-03-05T10:40:53;3.58;;;1.70;;
39502;SDS011;26970;49.900;10.774;2023-03-05T10:43:27;5.88;;;2.20;;
39502;SDS011;26970;49.900;10.774;2023-03-05T10:46:15;2.85;;;1.58;;
39502;SDS011;26970;49.900;10.774;2023-03-05T10:56:23;2.95;;;1.35;;
39502;SDS011;26970;49.900;10.774;2023-03-05T10:58:50;2.67;;;1.70;;
39502;SDS011;26970;49.900;10.774;2023-03-05T11:06:12;6.45;;;1.63;;
39502;SDS011;26970;49.900;10.774;2023-03-05T11:08:39;4.93;;;1.88;;
39502;SDS011;26970;49.900;10.774;2023-03-05T11:13:35;4.07;;;1.50;;
39502;SDS011;26970;49.900;10.774;2023-03-05T11:16:05;4.13;;;1.60;;
39502;SDS011;26970;49.900;10.774;2023-03-05T11:18:38;4.32;;;1.75;;
39502;SDS011;26970;49.900;10.774;2023-03-05T11:21:08;5.65;;;2.33;;
39502;SDS011;26970;49.900;10.774;2023-03-05T11:26:49;3.67;;;1.83;;
39502;SDS011;26970;49.900;10.774;2023-03-05T11:29:21;2.03;;;1.52;;
39502;SDS011;26970;49.900;10.774;2023-03-05T11:31:49;2.67;;;1.55;;
39502;SDS011;26970;49.900;10.774;2023-03-05T11:39:17;2.60;;;1.35;;
39502;SDS011;26970;49.900;10.774;2023-03-05T11:41:53;3.17;;;1.60;;
39502;SDS011;26970;49.900;10.774;2023-03-05T11:44:43;2.95;;;1.50;;
39502;SDS011;26970;49.900;10.774;2023-03-05T11:49:45;6.63;;;2.50;;
39502;SDS011;26970;49.900;10.774;2023-03-05T11:52:21;5.63;;;3.25;;
39502;SDS011;26970;49.900;10.774;2023-03-05T11:55:04;2.22;;;1.60;;
39502;SDS011;26970;49.900;10.774;2023-03-05T11:57:43;3.17;;;1.70;;
39502;SDS011;26970;49.900;10.774;2023-03-05T12:00:14;4.88;;;1.40;;
39502;SDS011;26970;49.900;10.774;2023-03-05T12:02:53;2.70;;;1.83;;
39502;SDS011;26970;49.900;10.774;2023-03-05T12:05:24;3.92;;;1.77;;
39502;SDS011;26970;49.900;10.774;2023-03-05T12:07:52;2.28;;;1.60;;
39502;SDS011;26970;49.900;10.774;2023-03-05T12:10:21;3.65;;;1.50;;
39502;SDS011;26970;49.900;10.774;2023-03-05T12:18:06;3.65;;;1.48;;
39502;SDS011;26970;49.900;10.774;2023-03-05T12:23:00;2.90;;;1.50;;
39502;SDS011;26970;49.900;10.774;2023-03-05T12:28:12;2.88;;;1.65;;
39502;SDS011;26970;49.900;10.774;2023-03-05T12:33:12;3.50;;;1.30;;
39502;SDS011;26970;49.900;10.774;2023-03-05T12:38:49;4.63;;;2.47;;
39502;SDS011;26970;49.900;10.774;2023-03-05T12:44:07;6.47;;;1.90;;
39502;SDS011;26970;49.900;10.774;2023-03-05T12:51:51;6.43;;;1.65;;
39502;SDS011;26970;49.900;10.774;2023-03-05T12:57:05;2.20;;;1.48;;
39502;SDS011;26970;49.900;10.774;2023-03-05T12:59:50;6.80;;;1.92;;
39502;SDS011;26970;49.900;10.774;2023-03-05T13:02:44;5.05;;;2.10;;
39502;SDS011;26970;49.900;10.774;2023-03-05T13:05:16;4.13;;;1.85;;
39502;SDS011;26970;49.900;10.774;2023-03-05T13:07:47;4.43;;;2.05;;
39502;SDS011;26970;49.900;10.774;2023-03-05T13:10:25;3.92;;;2.13;;
39502;SDS011;26970;49.900;10.774;2023-03-05T13:12:53;5.15;;;2.20;;
39502;SDS011;26970;49.900;10.774;2023-03-05T13:15:21;4.63;;;2.30;;
39502;SDS011;26970;49.900;10.774;2023-03-05T13:23:02;7.78;;;2.40;;
39502;SDS011;26970;49.900;10.774;2023-03-05T13:25:27;7.15;;;2.78;;
39502;SDS011;26970;49.900;10.774;2023-03-05T13:28:00;7.03;;;2.63;;
39502;SDS011;26970;49.900;10.774;2023-03-05T13:30:27;7.30;;;2.55;;
39502;SDS011;26970;49.900;10.774;2023-03-05T13:32:54;5.88;;;2.22;;
39502;SDS011;26970;49.900;10.774;2023-03-05T13:35:24;4.68;;;2.30;;
39502;SDS011;26970;49.900;10.774;2023-03-05T13:37:49;8.57;;;2.40;;
39502;SDS011;26970;49.900;10.774;2023-03-05T13:40:20;6.28;;;2.33;;
39502;SDS011;26970;49.900;10.774;2023-03-05T13:42:53;5.13;;;1.90;;
39502;SDS011;26970;49.900;10.774;2023-03-05T13:45:30;6.75;;;2.20;;
39502;SDS011;26970;49.900;10.774;2023-03-05T13:47:59;4.88;;;2.30;;
39502;SDS011;26970;49.900;10.774;2023-03-05T13:50:32;6.47;;;2.22;;
39502;SDS011;26970;49.900;10.774;2023-03-05T13:53:12;4.97;;;2.30;;
39502;SDS011;26970;49.900;10.774;2023-03-05T13:55:38;4.40;;;2.05;;
39502;SDS011;26970;49.900;10.774;2023-03-05T13:58:04;5.22;;;2.70;;
39502;SDS011;26970;49.900;10.774;2023-03-05T14:00:39;6.30;;;2.65;;
39502;SDS011;26970;49.900;10.774;2023-03-05T14:03:09;5.63;;;2.20;;
39502;SDS011;26970;49.900;10.774;2023-03-05T14:05:44;3.33;;;1.83;;
39502;SDS011;26970;49.900;10.774;2023-03-05T14:08:15;4.22;;;2.33;;
39502;SDS011;26970;49.900;10.774;2023-03-05T14:10:45;5.95;;;3.35;;
39502;SDS011;26970;49.900;10.774;2023-03-05T14:13:12;3.90;;;2.05;;
39502;SDS011;26970;49.900;10.774;2023-03-05T14:15:43;5.13;;;2.28;;
39502;SDS011;26970;49.900;10.774;2023-03-05T14:18:31;4.22;;;2.00;;
39502;SDS011;26970;49.900;10.774;2023-03-05T14:20:57;3.95;;;2.05;;
39502;SDS011;26970;49.900;10.774;2023-03-05T14:23:39;5.88;;;2.22;;
39502;SDS011;26970;49.900;10.774;2023-03-05T14:28:50;5.97;;;2.10;;
39502;SDS011;26970;49.900;10.774;2023-03-05T14:31:18;3.58;;;2.10;;
39502;SDS011;26970;49.900;10.774;2023-03-05T14:33:44;4.28;;;2.28;;
39502;SDS011;26970;49.900;10.774;2023-03-05T14:36:10;4.43;;;2.22;;
39502;SDS011;26970;49.900;10.774;2023-03-05T14:38:40;4.25;;;2.10;;
39502;SDS011;26970;49.900;10.774;2023-03-05T14:43:53;4.10;;;2.13;;
39502;SDS011;26970;49.900;10.774;2023-03-05T14:46:20;5.13;;;2.40;;
39502;SDS011;26970;49.900;10.774;2023-03-05T14:48:45;4.55;;;2.30;;
39502;SDS011;26970;49.900;10.774;2023-03-05T14:51:11;8.07;;;2.63;;
39502;SDS011;26970;49.900;10.774;2023-03-05T14:53:38;6.05;;;2.35;;
39502;SDS011;26970;49.900;10.774;2023-03-05T14:56:15;6.57;;;2.70;;
39502;SDS011;26970;49.900;10.774;2023-03-05T14:58:41;5.43;;;2.67;;
39502;SDS011;26970;49.900;10.774;2023-03-05T15:01:09;4.40;;;2.30;;
39502;SDS011;26970;49.900;10.774;2023-03-05T15:03:36;3.17;;;2.03;;
39502;SDS011;26970;49.900;10.774;2023-03-05T15:06:04;4.93;;;2.25;;
39502;SDS011;26970;49.900;10.774;2023-03-05T15:08:30;5.43;;;2.60;;
39502;SDS011;26970;49.900;10.774;2023-03-05T15:10:56;5.63;;;2.78;;
39502;SDS011;26970;49.900;10.774;2023-03-05T15:13:23;5.65;;;2.72;;
39502;SDS011;26970;49.900;10.774;2023-03-05T15:15:49;4.22;;;2.42;;
39502;SDS011;26970;49.900;10.774;2023-03-05T15:18:17;5.55;;;2.67;;
39502;SDS011;26970;49.900;10.774;2023-03-05T15:20:44;5.65;;;2.40;;
39502;SDS011;26970;49.900;10.774;2023-03-05T15:23:12;5.47;;;3.15;;
39502;SDS011;26970;49.900;10.774;2023-03-05T15:25:38;5.03;;;2.47;;
39502;SDS011;26970;49.900;10.774;2023-03-05T15:28:04;6.03;;;2.58;;
39502;SDS011;26970;49.900;10.774;2023-03-05T15:30:31;4.85;;;2.42;;
39502;SDS011;26970;49.900;10.774;2023-03-05T15:33:06;5.03;;;2.80;;
39502;SDS011;26970;49.900;10.774;2023-03-05T15:35:33;5.57;;;2.83;;
39502;SDS011;26970;49.900;10.774;2023-03-05T15:37:59;7.88;;;2.90;;
39502;SDS011;26970;49.900;10.774;2023-03-05T15:40:25;5.10;;;2.83;;
39502;SDS011;26970;49.900;10.774;2023-03-05T15:42:54;5.63;;;2.80;;
39502;SDS011;26970;49.900;10.774;2023-03-05T15:45:21;5.65;;;2.60;;
39502;SDS011;26970;49.900;10.774;2023-03-05T15:47:47;6.80;;;2.90;;
39502;SDS011;26970;49.900;10.774;2023-03-05T15:50:14;6.80;;;2.67;;
39502;SDS011;26970;49.900;10.774;2023-03-05T15:52:39;7.47;;;2.67;;
39502;SDS011;26970;49.900;10.774;2023-03-05T15:55:05;7.72;;;3.30;;
39502;SDS011;26970;49.900;10.774;2023-03-05T15:57:32;5.82;;;3.22;;
39502;SDS011;26970;49.900;10.774;2023-03-05T16:00:00;5.68;;;3.35;;
39502;SDS011;26970;49.900;10.774;2023-03-05T16:02:26;9.23;;;3.40;;
39502;SDS011;26970;49.900;10.774;2023-03-05T16:04:51;9.52;;;3.50;;